Mountain View, HI (96771)

4:07 PM HST on February 22, 2017 (GMT -1000)
Hawaiian Fern Acres | | Change Station
Active Advisory: Special Statement

Elev 1516 ft 19.53 °N, 155.10 °W | Updated 1 second ago

Mostly Cloudy
Mostly Cloudy
67.5 °F
Feels Like 67.5 °F
N
0.0
Wind Variable Wind from NNE
Gusts 0.0 mph

Today
High -- | Low -- °F
--% Chance of Precip.
Yesterday
High -- | Low -- °F
Precip. -- in
Pressure 30.16 in
Visibility 10.0 miles
Clouds Scattered Clouds 6000 ft
Mostly Cloudy 9000 ft
Dew Point 54 °F
Humidity 61%
Rainfall 0.14 in
Snow Depth Not available.
6:44 AM 6:23 PM
Waning Crescent, 13% visible
METAR PHTO 230153Z 06009KT 10SM SCT060 BKN090 25/13 A3016 RMK AO2 SLP211 T02500133
Pressure 30.16 in
Visibility 10.0 miles
Clouds Scattered Clouds 6000 ft
Mostly Cloudy 9000 ft
Dew Point 54 °F
Humidity 61%
Rainfall 0.14 in
Snow Depth Not available.
6:44 AM 6:23 PM
Waning Crescent, 13% visible
METAR PHTO 230153Z 06009KT 10SM SCT060 BKN090 25/13 A3016 RMK AO2 SLP211 T02500133

Get Your Daily Forecast Email!

Thanks for signing up!

Be on the lookout for a verification email in your inbox.

You'll start receiving the daily forecast at 8 AM.

×

10-Day Weather Forecast

Almanac

Astronomy

Feb. 22, 2017 Rise Set
Actual Time
Civil Twilight
Nautical Twilight
Astronomical Twilight
Moon
Length of Visible Light
Length of Day
Tomorrow will be .
, % of the Moon is Illuminated

Today's Extremes

State Highs State Lows

Community

WunderPhotos

Upload Photos

1,962,540 photos uploaded!

WunderBlog® & News

Nearby

Air Quality

  Air Quality AQ Index Pollutant
Not available.

Snow Depth

Station Depth Elevation

Earthquake Activity

City Distance Mag. Time & Date
Minimum magnitude displayed is 2.5.

Coastal Water Temperatures

Place Temperature

Stations

Nearby Weather Stations

Station Location Temp. Windchill Dew Point Humidity Wind Precip. Elev Updated Type
                   

Watches & Warnings

Special Statement
Issued: 2:58 PM HST Feb. 22, 2017 – National Weather Service

... A strong thunderstorm will affect Hawaii in Hawaii County...

At 253 PM HST, a strong thunderstorm was located near Pohakuloa
training area along saddle Road, or 26 miles east of Kailua-Kona.

Winds in excess of 30 mph and pea size hail are possible with this
storm.

Locations impacted include...
Bradshaw Army air field, Mauna Kea Summit, Pohakuloa training area
and Pohakuloa Camp.

Frequent cloud to ground lightning is occurring with this storm.
Lightning can strike 10 miles away from a thunderstorm. Seek a safe
shelter inside a building or vehicle.

Lat... Lon 1948 15567 1965 15586 1995 15555 1962 15534
time... Mot... loc 0053z 225deg 3kt 1970 15559


Foster